Back to top

Dickinson, ND weather

Theodore Roosevelt Regional Airport, Dickinson, ND: 6/04/2020 04:56
Visibility10 statute milesclear sky
View 7-Day Forecast
Area Summary
Sky/CloudsSky Clear
Weather [last 24 hours]None [rain began 09:10 ended 09:31; rain began 10:42 ended 10:52 ]
Pressure29.82 in.Hg (1010 hPa)
Dew Point39 °F (3.9 °C)
Relative Humidity61.2 %
Last 24-Hour Precip.0.01 in. (0.254 mm)
Reading TimePrecipitation
6-hr ending 6/3@11:560.01 in. (0.254 mm)
Temperature52 °F (11.1 °C)red thermometer
Reading TimeMinimum to Maximum Temperature
6-hr ending 6/3@23:5654 °F to 77 °F (12.2 °C to 25 °C)
6-hr ending 6/3@17:5673.9 °F to 82 °F (23.3 °C to 27.8 °C)
6-hr ending 6/3@11:5650 °F to 75.9 °F (10 °C to 24.4 °C)
6-hr ending 6/3@05:5645 °F to 50 °F (7.2 °C to 10 °C)
24-hr ending 6/4@00:5645 °F to 82 °F (7.2 °C to 27.8 °C)
Wind0 MPH (0 KT) green arrow pointing at 0 degrees
Wind FromNorth (000 Degrees)
Rolling 24-hr Peak Wind39.1 MPH (34 KT) on 6/3@09:10
Rolling 24-hr Peak Wind FromSouth/Southwest (200 Degrees)
Twilight Begins04:17Sunshine Yesterday
Sunrise04:56N/A
Sunset20:44
Twilight Ends21:23
METARKDIK 041056Z AUTO 00000KT 10SM CLR 11/04 A2982 RMK AO2 SLP086 T01110039
Tags: